createdAt,value
2023-04-26T00:00:14.536Z,94.30
2023-04-26T00:05:13.701Z,94.30
2023-04-26T00:10:12.876Z,94.00
2023-04-26T00:15:11.937Z,94.40
2023-04-26T00:20:13.765Z,94.50
2023-04-26T00:25:12.958Z,94.50
2023-04-26T00:30:12.138Z,94.90
2023-04-26T00:35:12.499Z,94.70
2023-04-26T00:40:12.158Z,94.70
2023-04-26T00:45:11.108Z,94.80
2023-04-26T00:50:11.462Z,95.10
2023-04-26T00:55:11.013Z,95.10
2023-04-26T01:00:10.984Z,95.10
2023-04-26T01:05:11.387Z,95.00
2023-04-26T01:10:10.794Z,95.10
2023-04-26T01:15:10.974Z,95.30
2023-04-26T01:20:12.459Z,95.20
2023-04-26T01:25:13.565Z,95.30
2023-04-26T01:30:12.549Z,95.50
2023-04-26T01:35:11.448Z,95.50
2023-04-26T01:40:13.907Z,95.40
2023-04-26T01:45:13.055Z,95.50
2023-04-26T01:50:30.050Z,95.40
2023-04-26T01:55:29.872Z,95.60
2023-04-26T02:00:28.505Z,95.80
2023-04-26T02:05:27.151Z,95.30
2023-04-26T02:10:25.985Z,95.40
2023-04-26T02:15:25.947Z,95.40
2023-04-26T02:20:24.369Z,95.30
2023-04-26T02:25:23.064Z,95.50
2023-04-26T02:30:21.680Z,96.10
2023-04-26T02:35:21.854Z,96.10
2023-04-26T02:40:21.161Z,95.90
2023-04-26T02:45:19.417Z,96.20
2023-04-26T02:50:18.456Z,96.50
2023-04-26T02:55:18.741Z,96.50
2023-04-26T03:00:17.446Z,96.50
2023-04-26T03:05:16.204Z,96.10
2023-04-26T03:10:14.827Z,96.10
2023-04-26T03:15:14.868Z,96.20
2023-04-26T03:20:15.365Z,96.40
2023-04-26T03:25:13.972Z,96.50
2023-04-26T03:30:14.929Z,96.40
2023-04-26T03:35:15.829Z,96.60
2023-04-26T03:40:14.546Z,96.60
2023-04-26T03:45:14.881Z,96.70
2023-04-26T03:50:13.384Z,96.60
2023-04-26T03:55:12.301Z,96.70
2023-04-26T04:00:14.163Z,96.60
2023-04-26T04:05:16.947Z,96.70
2023-04-26T04:10:16.747Z,96.70
2023-04-26T04:15:17.694Z,96.80
2023-04-26T04:20:21.539Z,96.90
2023-04-26T04:25:21.297Z,97.00
2023-04-26T04:30:20.376Z,97.00
2023-04-26T04:35:20.387Z,97.10
2023-04-26T04:40:19.898Z,97.10
2023-04-26T04:45:20.151Z,97.10
2023-04-26T04:50:22.058Z,97.20
2023-04-26T04:55:20.324Z,97.00
2023-04-26T05:00:19.704Z,96.90
2023-04-26T05:05:28.106Z,97.10
2023-04-26T05:10:26.329Z,97.10
2023-04-26T05:15:25.624Z,97.00
2023-04-26T05:20:23.882Z,97.20
2023-04-26T05:25:24.108Z,97.20
2023-04-26T05:30:29.553Z,97.40
2023-04-26T05:35:46.953Z,97.70
2023-04-26T05:40:49.373Z,97.40
2023-04-26T05:45:54.964Z,97.50
2023-04-26T05:50:54.292Z,97.70
2023-04-26T05:55:53.918Z,97.50
2023-04-26T06:00:53.386Z,97.80
2023-04-26T06:05:52.015Z,97.80
2023-04-26T06:10:54.940Z,98.00
2023-04-26T06:15:54.719Z,97.90
2023-04-26T06:20:53.352Z,97.90
2023-04-26T06:25:53.527Z,97.90
2023-04-26T06:30:51.856Z,98.00
2023-04-26T06:35:50.774Z,97.70
2023-04-26T06:40:50.033Z,97.60
2023-04-26T06:45:51.391Z,97.60
2023-04-26T06:50:51.122Z,97.70
2023-04-26T06:55:49.633Z,97.80
2023-04-26T07:00:48.134Z,97.30
2023-04-26T07:05:48.402Z,97.40
2023-04-26T07:10:47.297Z,97.60
2023-04-26T07:15:45.869Z,97.30
2023-04-26T07:20:44.349Z,97.50
2023-04-26T07:25:43.867Z,97.30
2023-04-26T07:30:43.421Z,97.00
2023-04-26T07:35:41.587Z,97.00
2023-04-26T07:40:40.073Z,96.90
2023-04-26T07:45:39.908Z,96.50
2023-04-26T07:50:38.647Z,96.60
2023-04-26T07:55:37.457Z,95.80
2023-04-26T08:00:38.821Z,95.20
2023-04-26T08:05:38.719Z,95.50
2023-04-26T08:10:38.589Z,94.80
2023-04-26T08:15:37.303Z,94.60
2023-04-26T08:20:35.815Z,94.10
2023-04-26T08:25:36.228Z,93.70
2023-04-26T08:30:34.441Z,93.30
2023-04-26T08:35:32.966Z,93.40
2023-04-26T08:40:32.006Z,93.00
2023-04-26T08:45:33.691Z,92.50
2023-04-26T08:50:34.752Z,92.50
2023-04-26T08:55:35.075Z,91.50
2023-04-26T09:00:35.149Z,91.70
2023-04-26T09:05:35.776Z,92.10
2023-04-26T09:10:34.405Z,92.10
2023-04-26T09:15:34.341Z,92.10
2023-04-26T09:20:32.879Z,91.80
2023-04-26T09:25:33.438Z,91.70
2023-04-26T09:30:39.643Z,91.90
2023-04-26T09:35:40.177Z,91.40
2023-04-26T09:40:41.308Z,90.80
2023-04-26T09:45:49.479Z,89.50
2023-04-26T09:50:50.132Z,90.50
2023-04-26T09:55:50.014Z,90.40
2023-04-26T10:00:51.797Z,90.70
2023-04-26T10:05:52.019Z,90.50
2023-04-26T10:10:51.716Z,91.20
2023-04-26T10:15:50.153Z,90.70
2023-04-26T10:20:55.299Z,90.70
2023-04-26T10:25:54.960Z,91.20
2023-04-26T10:30:57.560Z,90.50
2023-04-26T10:36:11.875Z,90.20
2023-04-26T10:41:38.870Z,88.90
2023-04-26T10:46:39.521Z,88.00
2023-04-26T10:51:39.487Z,89.40
2023-04-26T10:56:53.737Z,89.50
2023-04-26T11:01:54.577Z,87.90
2023-04-26T11:06:55.999Z,87.80
2023-04-26T11:11:54.563Z,87.50
2023-04-26T11:16:53.093Z,87.10
2023-04-26T11:21:55.223Z,86.20
2023-04-26T11:26:55.349Z,87.60
2023-04-26T11:31:55.142Z,87.50
2023-04-26T11:36:55.303Z,85.80
2023-04-26T11:41:57.917Z,86.80
2023-04-26T11:46:56.921Z,87.90
2023-04-26T11:51:56.808Z,87.70
2023-04-26T11:56:55.442Z,85.80
2023-04-26T12:01:54.315Z,86.20
2023-04-26T12:06:52.764Z,87.80
2023-04-26T12:12:00.466Z,90.40
2023-04-26T12:17:01.190Z,91.50
2023-04-26T12:21:59.460Z,92.30
2023-04-26T12:27:01.022Z,92.80
2023-04-26T12:32:01.497Z,92.90
2023-04-26T12:37:00.129Z,92.70
2023-04-26T12:42:00.011Z,92.80
2023-04-26T12:46:58.843Z,92.50
2023-04-26T12:51:57.835Z,91.40
2023-04-26T12:56:56.750Z,91.00
2023-04-26T13:01:56.740Z,90.80
2023-04-26T13:06:55.364Z,91.10
2023-04-26T13:11:53.929Z,91.50
2023-04-26T13:16:52.662Z,91.50
2023-04-26T13:21:53.525Z,91.30
2023-04-26T13:26:52.087Z,91.30
2023-04-26T13:31:50.643Z,91.10
2023-04-26T13:36:49.199Z,90.90
2023-04-26T13:41:49.074Z,91.00
2023-04-26T13:46:47.726Z,91.10
2023-04-26T13:51:46.602Z,92.10
2023-04-26T13:56:45.236Z,91.90
2023-04-26T14:01:46.810Z,91.40
2023-04-26T14:06:44.960Z,91.40
2023-04-26T14:11:44.752Z,90.20
2023-04-26T14:16:47.336Z,90.30
2023-04-26T14:21:46.409Z,91.00
2023-04-26T14:26:44.937Z,90.80
2023-04-26T14:31:44.026Z,90.30
2023-04-26T14:36:43.958Z,90.50
2023-04-26T14:41:44.051Z,89.80
2023-04-26T14:46:42.586Z,88.20
2023-04-26T14:51:41.185Z,88.50
2023-04-26T14:56:41.153Z,88.30
2023-04-26T15:01:39.751Z,86.60
2023-04-26T15:06:38.116Z,83.50
2023-04-26T15:11:37.252Z,85.90
2023-04-26T15:23:25.394Z,86.40
2023-04-26T15:28:23.571Z,86.20
2023-04-26T15:33:22.456Z,84.80
2023-04-26T15:38:20.950Z,85.30
2023-04-26T15:43:20.912Z,84.10
2023-04-26T15:48:19.557Z,83.20
2023-04-26T15:53:18.273Z,83.00
2023-04-26T15:58:16.845Z,82.20
2023-04-26T16:03:17.233Z,82.60
2023-04-26T16:08:24.389Z,81.90
2023-04-26T16:13:33.905Z,82.70
2023-04-26T16:18:34.454Z,82.50
2023-04-26T16:23:32.993Z,83.40
2023-04-26T16:28:31.626Z,85.50
2023-04-26T16:33:30.155Z,85.00
2023-04-26T16:38:30.065Z,85.40
2023-04-26T16:43:30.242Z,85.50
2023-04-26T16:48:31.527Z,86.00
2023-04-26T16:53:31.778Z,86.60
2023-04-26T16:58:29.935Z,86.80
2023-04-26T17:03:29.244Z,87.10
2023-04-26T17:08:27.959Z,87.60
2023-04-26T17:13:29.643Z,87.60
2023-04-26T17:18:28.431Z,85.40
2023-04-26T17:30:17.192Z,86.10
2023-04-26T17:35:16.132Z,86.40
2023-04-26T17:40:14.861Z,86.00
2023-04-26T17:45:14.674Z,85.50
2023-04-26T17:50:15.784Z,85.50
2023-04-26T17:55:14.649Z,86.30
2023-04-26T18:00:14.291Z,85.90
2023-04-26T18:05:16.368Z,85.60
2023-04-26T18:10:14.799Z,86.10
2023-04-26T18:15:14.489Z,86.60
2023-04-26T18:20:15.181Z,86.70
2023-04-26T18:25:13.730Z,87.30
2023-04-26T18:30:13.206Z,86.20
2023-04-26T18:35:12.282Z,85.60
2023-04-26T18:40:13.430Z,84.00
2023-04-26T18:45:12.790Z,83.80
2023-04-26T18:50:11.380Z,84.80
2023-04-26T18:55:11.919Z,84.60
2023-04-26T19:00:12.206Z,84.50
2023-04-26T19:05:12.076Z,85.70
2023-04-26T19:10:12.669Z,86.00
2023-04-26T19:15:12.169Z,86.10
2023-04-26T19:20:13.420Z,86.40
2023-04-26T19:25:14.100Z,86.40
2023-04-26T19:30:13.072Z,86.80
2023-04-26T19:35:11.772Z,87.00
2023-04-26T19:40:12.692Z,87.40
2023-04-26T19:45:11.896Z,87.30
2023-04-26T19:50:11.321Z,87.50
2023-04-26T19:55:10.642Z,87.70
2023-04-26T20:00:12.236Z,87.30
2023-04-26T20:05:11.997Z,87.10
2023-04-26T20:10:11.376Z,87.10
2023-04-26T20:15:13.448Z,88.30
2023-04-26T20:20:13.042Z,89.40
2023-04-26T20:25:12.922Z,88.60
2023-04-26T20:30:13.850Z,88.90
2023-04-26T20:35:13.965Z,88.40
2023-04-26T20:40:13.022Z,89.40
2023-04-26T20:45:13.819Z,89.20
2023-04-26T20:50:13.025Z,89.30
2023-04-26T20:55:11.806Z,89.00
2023-04-26T21:00:13.475Z,88.80
2023-04-26T21:05:11.852Z,88.60
2023-04-26T21:10:11.619Z,88.80
2023-04-26T21:15:12.518Z,88.60
2023-04-26T21:20:12.139Z,88.70
2023-04-26T21:25:13.243Z,88.40
2023-04-26T21:30:14.214Z,88.90
2023-04-26T21:35:12.426Z,88.60
2023-04-26T21:40:11.944Z,88.70
2023-04-26T21:45:12.900Z,89.30
2023-04-26T21:50:14.190Z,88.80
2023-04-26T21:55:12.593Z,88.80
2023-04-26T22:00:13.507Z,88.80
2023-04-26T22:05:14.896Z,89.20
2023-04-26T22:10:13.448Z,89.00
2023-04-26T22:15:13.613Z,88.40
2023-04-26T22:20:13.357Z,90.00
2023-04-26T22:25:11.751Z,90.10
2023-04-26T22:30:25.006Z,90.20
2023-04-26T22:35:25.539Z,90.00
2023-04-26T22:40:23.662Z,90.10
2023-04-26T22:45:24.137Z,90.10
2023-04-26T22:50:23.177Z,90.10
2023-04-26T22:55:21.828Z,90.30
2023-04-26T23:00:20.419Z,90.30
2023-04-26T23:05:20.462Z,90.50
2023-04-26T23:10:18.976Z,90.40
2023-04-26T23:15:18.248Z,90.50
2023-04-26T23:20:16.720Z,90.40
2023-04-26T23:25:16.556Z,90.70
2023-04-26T23:30:15.622Z,90.60
2023-04-26T23:35:14.651Z,90.60
2023-04-26T23:40:14.059Z,90.70
2023-04-26T23:45:14.221Z,90.70
2023-04-26T23:50:13.064Z,90.70
2023-04-26T23:55:12.225Z,90.80
